Webcam Rollhalt 06

Webcam Rollhalt 24

 

Flugplatz - Wetter - Augsburg

[Quelle: ADDS]
METAR
EDMA 140250Z AUTO 24002KT 8000 SCT250/// 09/07 Q1018 =
EDMA 131700Z 1318/1403 05005KT CAVOK BECMG 1318/1320 VRB02KT
TAF
EDMA 131700Z 1318/1403 05005KT CAVOK BECMG 1318/1320 VRB02KT =
SR / SS: 03:32 / 19:14 UTC (Augsburg 2020-07-14)

Flugplatz - Wetter - Laupheim

[Quelle: ADDS]
METAR
ETHL 140220Z 00000KT 9999 BKN260 10/07 Q1018 BLU+ =
TAF
SR / SS: 03:37 / 19:18 UTC (Laupheim 2020-07-14)

Flugplatz - Wetter - Memmingen

[Quelle: ADDS]
METAR
EDJA 140250Z AUTO 00000KT 9999 // BKN250/// 09/07 Q1018 =
EDJA 131700Z 1318/1403 06007KT CAVOK BECMG 1318/1320 VRB03KT
TAF
EDJA 131700Z 1318/1403 06007KT CAVOK BECMG 1318/1320 VRB03KT =
SR / SS: 03:36 / 19:13 UTC (Memmingen 2020-07-14)

Flugplatz - Wetter - Neuburg/Donau

[Quelle: ADDS]
METAR
ETSN 140220Z 31001KT 9999 FEW070 BKN230 09/08 Q1019 BLU+ =
ETSN 140100Z 1402/1411 09003KT 9999 NSW FEW060 BKN260 BY ETGL
TAF
ETSN 140100Z 1402/1411 09003KT 9999 NSW FEW060 BKN260 BY ETGL =
SR / SS: 03:29 / 19:13 UTC (Neuburg 2020-07-14)

Flugplatz - Wetter - Stuttgart

[Quelle: ADDS]
METAR
EDDS 140250Z 30002KT CAVOK 11/08 Q1017 =
EDDS 132300Z 1400/1424 VRB03KT CAVOK BECMG 1416/1418 29007KT BECMG 1420/1422 VRB03KT
TAF
EDDS 132300Z 1400/1424 VRB03KT CAVOK BECMG 1416/1418 29007KT BECMG 1420/1422 VRB03KT =
SR / SS: 03:37 / 19:21 UTC (Stuttgart 2020-07-14)

Flugplatz - Wetter - Niederstetten

[Quelle: ADDS]
METAR
ETHN 140220Z 14006KT 9999 FEW075 BKN220 14/06 Q1018 BLU+ =
TAF
SR / SS: 03:32 / 19:23 UTC (Niederstetten 2020-07-14)